Dickson, TN (37055)

2:07 PM CST on December 27, 2014 (GMT -0600)
Tidwell Station-- Hwy 47 & Johnson Street, Burns, Tn | Change Station
CLOSE
Current Station
Personal Weather Station
Location: Burns, TN
Elevation: 784 ft
Nearby Weather Stations

Elev 784 ft 36.05 °N, 87.30 °W | Updated 2 seconds ago

Mostly Cloudy
Mostly Cloudy
49.8 °F
Feels Like 50 °F
N
2.0
Wind Variable Wind from SE
Gusts 8.7 mph

Today
High -- | Low -- °F
--% Chance of Precip.
Yesterday
High -- | Low -- °F
Precip. -- in
6:59 AM 4:42 PM
Waxing Crescent, 39% visible
Pressure 30.12 in
Visibility 7.0 miles
Clouds Few 300 ft
Mostly Cloudy 2100 ft
Overcast 2700 ft
Windchill 50 °F
Dew Point 42 °F
Humidity 74%
Rainfall 0.25 in
Snow Depth Not available.
UV 1 out of 12
Pollen .10 out of 12
Air Quality Not available.
Flu Activity Not available.
METAR KHOP 271958Z AUTO 16002KT 7SM -RA FEW003 BKN021 OVC027 10/09 A3011 RMK AO2 RAE1953DZB1927E1929B1953 SLP199 P0008 T00980091

More Conditions Fewer Conditions

Pressure 30.12 in
Visibility 7.0 miles
Clouds Few 300 ft
Mostly Cloudy 2100 ft
Overcast 2700 ft
Windchill 50 °F
Dew Point 42 °F
Humidity 74%
Rainfall 0.25 in
Snow Depth Not available.
UV 1 out of 12
Pollen .10 out of 12
Air Quality Not available.
Flu Activity Not available.
METAR KHOP 271958Z AUTO 16002KT 7SM -RA FEW003 BKN021 OVC027 10/09 A3011 RMK AO2 RAE1953DZB1927E1929B1953 SLP199 P0008 T00980091

More Conditions Fewer Conditions

10-Day Weather Forecast

Almanac

Astronomy

Dec. 27, 2014 Rise Set
Actual Time
Civil Twilight
Nautical Twilight
Astronomical Twilight
Moon
Length of Visible Light
Length of Day
Tomorrow will be .
, % of the Moon is Illuminated

Today's Extremes

State Highs State Lows

Community

WunderPhotos

Upload Photos

1,781,033 photos uploaded!

WunderBlogs® & News

Nearby

Air Quality

  Air Quality AQ Index Pollutant
Not available.

Snow Depth

Station Depth Elevation

Earthquake Activity

City Distance Mag. Time & Date
Minimum magnitude displayed is 2.5.

Coastal Water Temperatures

Place Temperature

Nearby Weather Stations